Flight Track Log - Related Links

Times and Time Zones

All times are in EDT time to prevent confusion due to time zone crossing. See the JUS327 flight status page for this flight to view local times or setup timezone preferences in your user account.

Time Position Orientation Groundspeed Altitude Reporting Facility
EDT Latitude Longitude Course Direction KTS MPH feet Rate Location/Type
Tue 02:45:24 PM 32.1233 -110.9494 313° West 161 185 3,500  Level Albuquerque Center
Tue 02:46:37 PM 32.1689 -111.0078 313° West 220 253 5,200 1,626 Climbing Albuquerque Center
Tue 02:47:11 PM 32.2006 -110.9936 21° North 235 270 6,400 1,900 Climbing Albuquerque Center
Tue 02:47:37 PM 32.2225 -110.9631 50° Northeast 257 296 7,100 2,066 Climbing Albuquerque Center
Tue 02:48:12 PM 32.2481 -110.9258 51° Northeast 261 300 8,500 2,687 Climbing Albuquerque Center
Tue 02:48:44 PM 32.2622 -110.8717 73° East 288 331 10,100 2,323 Climbing Albuquerque Center
Tue 02:49:14 PM 32.2700 -110.8317 77° East 299 344 10,900 1,500 Climbing Albuquerque Center
Tue 02:50:16 PM 32.2869 -110.7261 79° East 323 372 12,400 2,226 Climbing Albuquerque Center
Tue 02:51:18 PM 32.3131 -110.6136 75° East 345 397 15,500 2,585 Climbing Albuquerque Center
Tue 02:52:19 PM 32.3497 -110.5067 68° East 349 402 17,700 2,293 Climbing Albuquerque Center
Tue 02:53:21 PM 32.3347 -110.3678 97° East 361 415 20,200 2,274 Climbing Albuquerque Center
Tue 02:54:23 PM 32.3161 -110.2494 101° East 371 427 22,400 1,805 Climbing Albuquerque Center
Tue 02:55:24 PM 32.3108 -110.1244 93° East 381 438 23,900 1,268 Climbing Albuquerque Center
Tue 02:56:26 PM 32.3558 -110.0094 65° Northeast 406 467 25,000 919 Climbing Albuquerque Center
Tue 02:57:28 PM 32.4308 -109.8997 51° Northeast 427 491 25,800 435 Climbing Albuquerque Center
Tue 02:58:30 PM 32.5108 -109.7597 56° Northeast 432 497 25,900 341 Climbing Albuquerque Center
Tue 02:59:31 PM 32.5886 -109.6450 51° Northeast 444 511 26,500 780 Climbing Albuquerque Center
Tue 03:00:33 PM 32.6636 -109.5194 55° Northeast 463 533 27,500 1,016 Climbing Albuquerque Center
Tue 03:01:35 PM 32.7467 -109.3964 51° Northeast 476 548 28,600 927 Climbing Albuquerque Center
Tue 03:02:36 PM 32.8300 -109.2697 52° Northeast 486 559 29,400 927 Climbing Albuquerque Center
Tue 03:03:38 PM 32.9272 -109.1114 54° Northeast 495 570 30,500 871 Climbing Albuquerque Center
Tue 03:04:40 PM 33.0075 -108.9961 50° Northeast 500 575 31,200 732 Climbing Albuquerque Center
Tue 03:05:41 PM 33.0858 -108.8589 56° Northeast 499 574 32,000 732 Climbing Albuquerque Center
Tue 03:06:43 PM 33.1867 -108.7083 51° Northeast 500 575 32,700 629 Climbing Albuquerque Center
Tue 03:07:45 PM 33.2675 -108.5739 54° Northeast 503 579 33,300 683 Climbing Albuquerque Center
Tue 03:08:46 PM 33.3486 -108.4372 55° Northeast 505 581 34,100 732 Climbing Albuquerque Center
Tue 03:09:48 PM 33.4367 -108.3089 51° Northeast 505 581 34,800 390 Climbing Albuquerque Center
Tue 03:10:49 PM 33.5136 -108.1711 56° Northeast 502 578 34,900  Climbing Albuquerque Center
Tue 03:11:51 PM 33.6064 -108.0303 52° Northeast 500 575 34,800  Descending Albuquerque Center
Tue 03:12:53 PM 33.6900 -107.9000 52° Northeast 494 568 34,900 49 Climbing Albuquerque Center
Tue 03:13:54 PM 33.7656 -107.7589 57° Northeast 495 570 34,900  Level Albuquerque Center
Tue 03:14:56 PM 33.8525 -107.6317 51° Northeast 493 567 34,900  Level Albuquerque Center
Tue 03:15:58 PM 33.9317 -107.4986 54° Northeast 489 563 34,900  Level Albuquerque Center
Tue 03:16:59 PM 34.0250 -107.3411 54° Northeast 480 552 34,900  Level Albuquerque Center
Tue 03:18:01 PM 34.1106 -107.2153 51° Northeast 486 559 34,900  Level Albuquerque Center
Tue 03:19:03 PM 34.1853 -107.0722 58° Northeast 494 568 34,900  Level Albuquerque Center
Tue 03:20:04 PM 34.2664 -106.9378 54° Northeast 496 571 34,900  Level Albuquerque Center
Tue 03:21:06 PM 34.3631 -106.7867 52° Northeast 494 568 34,900  Level Albuquerque Center
Tue 03:22:08 PM 34.4219 -106.6339 65° Northeast 497 572 34,900  Level Albuquerque Center
Tue 03:23:09 PM 34.4769 -106.5092 62° Northeast 499 574 34,900  Level Albuquerque Center
Tue 03:24:11 PM 34.5475 -106.3678 59° Northeast 493 567 34,900  Level Albuquerque Center
Tue 03:25:13 PM 34.6186 -106.1856 65° Northeast 504 580 34,900  Level Albuquerque Center
Tue 03:26:14 PM 34.6839 -106.0350 62° Northeast 500 575 34,900  Level Albuquerque Center
Tue 03:27:16 PM 34.7528 -105.8850 61° Northeast 504 580 34,900 48 Level Albuquerque Center
Tue 03:28:18 PM 34.8153 -105.7297 64° Northeast 507 583 35,000  Climbing Albuquerque Center
Tue 03:29:19 PM 34.8864 -105.5794 60° Northeast 509 586 34,900  Descending Albuquerque Center
Tue 03:30:21 PM 34.9494 -105.4228 64° Northeast 510 587 35,000  Climbing Albuquerque Center
Tue 03:31:23 PM 35.0169 -105.2711 61° Northeast 505 581 34,900 -49 Descending Albuquerque Center
Tue 03:32:24 PM 35.0919 -105.0881 63° Northeast 510 587 34,900  Level Albuquerque Center
Tue 03:33:26 PM 35.1600 -104.9350 61° Northeast 508 585 34,900  Level Albuquerque Center
Tue 03:34:28 PM 35.2419 -104.7875 56° Northeast 514 592 34,900 49 Level Albuquerque Center
Tue 03:35:29 PM 35.3133 -104.6328 60° Northeast 515 593 35,000  Climbing Albuquerque Center
Tue 03:36:31 PM 35.3917 -104.4822 57° Northeast 515 593 34,900 -49 Descending Albuquerque Center
Tue 03:37:32 PM 35.4669 -104.3294 59° Northeast 513 590 34,900  Level Albuquerque Center
Tue 03:38:34 PM 35.5425 -104.1733 59° Northeast 518 596 34,900 48 Level Albuquerque Center
Tue 03:39:36 PM 35.6233 -104.0192 57° Northeast 525 604 35,000  Climbing Albuquerque Center
Tue 03:40:37 PM 35.6931 -103.8556 62° Northeast 530 610 34,900 -49 Descending Albuquerque Center
Tue 03:41:39 PM 35.7758 -103.6986 57° Northeast 538 619 34,900 49 Level Albuquerque Center
Tue 03:42:40 PM 35.8533 -103.5417 59° Northeast 534 615 35,000  Climbing Albuquerque Center
Tue 03:43:42 PM 35.9267 -103.3794 61° Northeast 534 615 34,900 -49 Descending Albuquerque Center
Tue 03:44:43 PM 36.0053 -103.2206 59° Northeast 537 618 34,900  Level Albuquerque Center
Tue 03:45:45 PM 36.0458 -103.0464 74° East 522 601 34,900  Level Albuquerque Center
Tue 03:46:47 PM 36.0972 -102.8731 70° East 522 601 34,900  Level Albuquerque Center
Tue 03:47:48 PM 36.1631 -102.7064 64° Northeast 534 615 34,900  Level Albuquerque Center
Tue 03:48:50 PM 36.2264 -102.5039 69° East 528 608 34,900  Level Albuquerque Center
Tue 03:49:51 PM 36.2842 -102.3389 66° East 524 603 34,900  Level Albuquerque Center
Tue 03:50:53 PM 36.3378 -102.1725 68° East 521 600 34,900  Level Albuquerque Center
Tue 03:51:54 PM 36.3950 -102.0064 67° East 522 601 34,900  Level Albuquerque Center
Tue 03:52:56 PM 36.4456 -101.8417 69° East 514 592 34,900  Level Albuquerque Center
Tue 03:53:58 PM 36.4931 -101.6739 71° East 511 588 34,900  Level Albuquerque Center
Tue 03:54:59 PM 36.5014 -101.4969 87° East 483 556 34,900  Level Albuquerque Center
Tue 03:56:01 PM 36.4944 -101.3436 93° East 470 541 34,900  Level Albuquerque Center
Tue 03:57:02 PM 36.5106 -101.1581 84° East 482 555 34,900  Level Albuquerque Center
Tue 03:57:46 PM 36.5222 -101.0508 82° East 485 558 34,900  Level Kansas City Center
Tue 03:58:50 PM 36.5375 -100.8633 84° East 489 563 34,900  Level Kansas City Center
Tue 03:59:51 PM 36.5481 -100.7022 85° East 489 563 34,900  Level Kansas City Center
Tue 04:00:54 PM 36.5622 -100.5114 85° East 495 570 34,900  Level Kansas City Center
Tue 04:01:55 PM 36.5733 -100.3333 86° East 496 571 34,900  Level Kansas City Center
Tue 04:02:56 PM 36.5858 -100.1606 85° East 497 572 34,900  Level Kansas City Center
Tue 04:03:58 PM 36.5939 -99.9886 87° East 497 572 34,900  Level Kansas City Center
Tue 04:05:02 PM 36.6050 -99.8186 85° East 492 566 34,900  Level Kansas City Center
Tue 04:06:03 PM 36.6161 -99.6497 85° East 488 562 34,900  Level Kansas City Center
Tue 04:07:04 PM 36.6272 -99.4792 85° East 490 564 34,900  Level Kansas City Center
Tue 04:08:04 PM 36.6378 -99.3086 86° East 489 563 34,900  Level Kansas City Center
Tue 04:09:08 PM 36.6475 -99.1386 86° East 490 564 34,900  Level Kansas City Center
Tue 04:10:10 PM 36.6589 -98.9661 85° East 493 567 34,900  Level Kansas City Center
Tue 04:11:11 PM 36.6689 -98.7653 86° East 485 558 34,900  Level Kansas City Center
Tue 04:12:14 PM 36.6775 -98.6006 86° East 478 550 34,900  Level Kansas City Center
Tue 04:13:16 PM 36.6875 -98.4361 86° East 475 547 34,900  Level Kansas City Center
Tue 04:14:16 PM 36.6944 -98.2714 87° East 473 544 34,900  Level Kansas City Center
Tue 04:15:20 PM 36.7011 -98.1056 87° East 475 547 34,900  Level Kansas City Center
Tue 04:16:21 PM 36.7117 -97.9400 85° East 476 548 34,900  Level Kansas City Center
Tue 04:17:22 PM 36.7169 -97.7733 88° East 479 551 34,900 49 Level Kansas City Center
Tue 04:18:23 PM 36.7233 -97.6050 87° East 481 554 35,000  Climbing Kansas City Center
Tue 04:19:28 PM 36.7322 -97.4353 86° East 486 559 34,900 -48 Descending Kansas City Center
Tue 04:20:28 PM 36.7428 -97.2253 86° East 493 567 34,900 50 Level Kansas City Center
Tue 04:21:29 PM 36.7644 -97.0856 79° East 500 575 35,000  Climbing Kansas City Center
Tue 04:22:33 PM 36.8853 -96.9628 39° Northeast 512 589 34,900 -48 Descending Kansas City Center
Tue 04:23:34 PM 36.9753 -96.8328 49° Northeast 502 578 34,900 49 Level Kansas City Center
Tue 04:24:36 PM 37.0464 -96.6631 62° Northeast 498 573 35,000  Climbing Kansas City Center
Tue 04:25:39 PM 37.1311 -96.5203 53° Northeast 502 578 34,900 -49 Descending Kansas City Center
Tue 04:26:39 PM 37.2231 -96.3864 49° Northeast 503 579 34,900  Level Kansas City Center
Tue 04:27:44 PM 37.3042 -96.2414 55° Northeast 505 581 34,900  Level Kansas City Center
Tue 04:28:45 PM 37.3906 -96.1036 52° Northeast 500 575 34,900  Level Kansas City Center
Tue 04:29:45 PM 37.4767 -95.9653 52° Northeast 500 575 34,900  Level Kansas City Center
Tue 04:30:49 PM 37.5739 -95.7903 55° Northeast 501 577 34,900  Level Kansas City Center
Tue 04:31:50 PM 37.6631 -95.6544 50° Northeast 501 577 34,900  Level Kansas City Center
Tue 04:32:54 PM 37.7419 -95.5094 55° Northeast 498 573 34,900  Level Kansas City Center
Tue 04:33:55 PM 37.8267 -95.3664 53° Northeast 504 580 34,900  Level Kansas City Center
Tue 04:34:56 PM 37.9161 -95.2267 51° Northeast 508 585 34,900  Level Kansas City Center
Tue 04:36:00 PM 38.0000 -95.0658 56° Northeast 501 577 34,900  Level Kansas City Center
Tue 04:37:01 PM 38.0836 -94.9328 51° Northeast 505 581 34,900  Level Kansas City Center
Tue 04:38:02 PM 38.1767 -94.7719 54° Northeast 506 582 34,900  Level Kansas City Center
Tue 04:39:05 PM 38.2506 -94.6331 56° Northeast 502 578 34,900  Level Kansas City Center
Tue 04:40:06 PM 38.3494 -94.4775 51° Northeast 504 580 34,900  Level Kansas City Center
Tue 04:41:10 PM 38.4225 -94.3375 56° Northeast 498 573 34,900  Level Kansas City Center
Tue 04:42:12 PM 38.5150 -94.1794 53° Northeast 501 577 34,900  Level Kansas City Center
Tue 04:43:14 PM 38.5942 -94.0433 53° Northeast 500 575 34,900  Level Kansas City Center
Tue 04:44:15 PM 38.6792 -93.8781 57° Northeast 500 575 34,900  Level Kansas City Center
Tue 04:45:18 PM 38.7614 -93.7469 51° Northeast 500 575 34,900  Level Kansas City Center
Tue 04:46:19 PM 38.8406 -93.5981 56° Northeast 504 580 34,900  Level Kansas City Center
Tue 04:47:23 PM 38.9375 -93.4225 55° Northeast 501 577 34,900  Level Kansas City Center
Tue 04:48:24 PM 39.0200 -93.2839 53° Northeast 505 581 34,900  Level Kansas City Center
Tue 04:49:24 PM 39.0936 -93.1325 58° Northeast 502 578 34,900  Level Kansas City Center
Tue 04:50:29 PM 39.1769 -92.9911 53° Northeast 502 578 34,900  Level Kansas City Center
Tue 04:51:30 PM 39.2567 -92.8489 54° Northeast 497 572 34,900  Level Kansas City Center
Tue 04:52:31 PM 39.3453 -92.6711 57° Northeast 495 570 34,900  Level Kansas City Center
Tue 04:53:34 PM 39.4289 -92.5333 52° Northeast 495 570 34,900  Level Kansas City Center
Tue 04:54:36 PM 39.5014 -92.3861 57° Northeast 491 565 34,900  Level Kansas City Center
Tue 04:55:36 PM 39.5786 -92.2422 55° Northeast 493 567 34,900  Level Kansas City Center
Tue 04:56:39 PM 39.6731 -92.0708 54° Northeast 493 567 34,900  Level Kansas City Center
Tue 04:57:41 PM 39.7461 -91.9203 58° Northeast 497 572 34,900  Level Kansas City Center
Tue 04:58:44 PM 39.8272 -91.7794 53° Northeast 495 570 34,900  Level Kansas City Center
Tue 04:59:45 PM 39.9008 -91.6294 57° Northeast 499 574 34,900  Level Kansas City Center
Tue 05:00:47 PM 39.9756 -91.4844 56° Northeast 492 566 34,900  Level Kansas City Center
Tue 05:01:51 PM 40.0717 -91.3131 54° Northeast 492 566 34,900  Level Kansas City Center
Tue 05:02:52 PM 40.1400 -91.1617 59° Northeast 491 565 34,900  Level Kansas City Center
Tue 05:03:53 PM 40.2175 -91.0181 55° Northeast 488 562 34,900  Level Kansas City Center
Tue 05:04:54 PM 40.2994 -90.8617 55° Northeast 488 562 34,900  Level Chicago Center
Tue 05:05:56 PM 40.3719 -90.7119 58° Northeast 488 562 34,900  Level Chicago Center
Tue 05:06:58 PM 40.4525 -90.5700 53° Northeast 484 557 34,900  Level Chicago Center
Tue 05:08:00 PM 40.5219 -90.4181 59° Northeast 485 558 34,900  Level Chicago Center
Tue 05:09:02 PM 40.6136 -90.2428 55° Northeast 483 556 34,900  Level Chicago Center
Tue 05:10:04 PM 40.6864 -90.1053 55° Northeast 482 555 34,900  Level Chicago Center
Tue 05:11:06 PM 40.7544 -89.9519 60° Northeast 485 558 34,900  Level Chicago Center
Tue 05:12:08 PM 40.8328 -89.8047 55° Northeast 488 562 34,900  Level Chicago Center
Tue 05:13:10 PM 40.9169 -89.6242 58° Northeast 491 565 34,900  Level Chicago Center
Tue 05:14:12 PM 40.9867 -89.4792 57° Northeast 489 563 34,900  Level Chicago Center
Tue 05:15:14 PM 41.0658 -89.3319 54° Northeast 493 567 34,900  Level Chicago Center
Tue 05:16:16 PM 41.1369 -89.1708 60° Northeast 494 568 34,900  Level Chicago Center
Tue 05:17:18 PM 41.2119 -89.0208 56° Northeast 491 565 34,900  Level Chicago Center
Tue 05:18:20 PM 41.2694 -88.8567 65° Northeast 505 581 34,900  Level Chicago Center
Tue 05:19:22 PM 41.3181 -88.6522 72° East 486 559 34,900  Level Chicago Center
Tue 05:20:24 PM 41.3481 -88.4747 77° East 493 567 34,900  Level Chicago Center
Tue 05:21:26 PM 41.3892 -88.3017 72° East 494 568 34,900  Level Chicago Center
Tue 05:22:28 PM 41.4225 -88.1158 76° East 511 588 34,900  Level Chicago Center
Tue 05:23:30 PM 41.4639 -87.9450 72° East 496 571 34,900  Level Chicago Center
Tue 05:24:32 PM 41.4989 -87.7528 76° East 495 570 34,900  Level Chicago Center
Tue 05:25:34 PM 41.5344 -87.5786 75° East 490 564 34,900 -435 Level Chicago Center
Tue 05:26:36 PM 41.5678 -87.4025 76° East 492 566 34,000 -871 Descending Chicago Center
Tue 05:27:38 PM 41.6139 -87.1886 74° East 503 579 33,100 -484 Descending Chicago Center
Tue 05:28:40 PM 41.6856 -87.0372 58° Northeast 493 567 33,000 -339 Descending Chicago Center
Tue 05:29:42 PM 41.7567 -86.8844 58° Northeast 489 563 32,400 -1,065 Descending Chicago Center
Tue 05:30:44 PM 41.7997 -86.7131 71° East 498 573 30,800 -1,355 Descending Chicago Center
Tue 05:31:46 PM 41.8103 -86.5319 85° East 497 572 29,600 -1,403 Descending Chicago Center
Tue 05:32:48 PM 41.8361 -86.3553 79° East 487 560 27,900 -1,645 Descending Chicago Center
Tue 05:33:50 PM 41.8661 -86.1431 79° East 482 555 26,200 -1,500 Descending Chicago Center
Tue 05:34:52 PM 41.8917 -85.9692 79° East 476 548 24,800 -1,210 Descending Chicago Center
Tue 05:35:54 PM 41.9181 -85.7983 78° East 467 537 23,700 -1,161 Descending Chicago Center
Tue 05:36:56 PM 41.9414 -85.6297 79° East 458 527 22,400 -1,210 Descending Chicago Center
Tue 05:37:58 PM 41.9658 -85.4597 79° East 459 528 21,200 -1,190 Descending Chicago Center
Tue 05:38:57 PM 41.9903 -85.2969 79° East 465 535 20,000 -1,160 Descending Cleveland Center
Tue 05:39:57 PM 42.0100 -85.1167 82° East 460 529 18,900 -1,150 Descending Cleveland Center
Tue 05:40:57 PM 42.0372 -84.9533 77° East 449 517 17,700 -1,100 Descending Cleveland Center
Tue 05:41:57 PM 42.0578 -84.7953 80° East 443 510 16,700 -1,350 Descending Cleveland Center
Tue 05:42:57 PM 42.0614 -84.6361 88° East 438 504 15,000 -2,150 Descending Cleveland Center
Tue 05:43:57 PM 42.0372 -84.4919 103° East 400 460 12,400 -2,200 Descending Cleveland Center
Tue 05:44:57 PM 42.0147 -84.3564 103° East 390 449 10,600 -1,553 Descending Cleveland Center
Tue 05:45:22 PM 42.0019 -84.2997 107° East 336 387 10,200 -600 Descending Cleveland Center
Tue 05:45:57 PM 41.9911 -84.2461 105° East 361 415 10,000 -109 Descending Cleveland Center
Tue 05:46:17 PM 41.9844 -84.1925 99° East 326 375 10,100 100 Climbing Cleveland Center
Tue 05:46:57 PM 41.9844 -84.1256 90° East 333 383 10,100  Level Cleveland Center
Tue 05:47:12 PM 42.0167 -84.0992 31° Northeast 322 371 10,100 -197 Level Cleveland Center
Tue 05:47:58 PM 42.0517 -84.0453 49° Northeast 282 325 9,900 -1,082 Descending Cleveland Center
Tue 05:48:13 PM 42.0775 -84.0158 40° Northeast 310 357 9,000 -2,034 Descending Cleveland Center
Tue 05:48:57 PM 42.1122 -83.9675 46° Northeast 287 330 7,900 -1,869 Descending Cleveland Center
Tue 05:49:14 PM 42.1381 -83.9436 34° Northeast 285 328 7,100 -1,900 Descending Cleveland Center
Tue 05:49:57 PM 42.1744 -83.9033 39° Northeast 280 322 6,000 -1,881 Descending Cleveland Center
Tue 05:50:21 PM 42.1986 -83.8628 51° Northeast 276 318 5,000 -1,800 Descending Cleveland Center
Tue 05:50:57 PM 42.2103 -83.8183 70° East 268 308 4,200 -1,645 Descending Cleveland Center
Tue 05:51:23 PM 42.2264 -83.7714 65° Northeast 252 290 3,300 -1,103 Descending Cleveland Center
Tue 05:52:24 PM 42.2533 -83.6944 65° Northeast 212 244 2,600 -393 Descending Cleveland Center
Tue 05:53:25 PM 42.2486 -83.6381 96° East 162 186 2,500 -344 Descending Cleveland Center
Tue 05:54:26 PM 42.2294 -83.5811 114° Southeast 153 176 1,900 -393 Descending Cleveland Center
Tue 05:55:27 PM 42.2008 -83.5517 143° Southeast 137 158 1,700 -197 Descending Cleveland Center
Tue 05:56:28 PM 42.2172 -83.5692 322° Northwest 147 169 1,500 -197 Descending Cleveland Center

Login

Don't have an account? Register now (free) for customized features, flight alerts, and more!